Date,TemperatureHighF,TemperatureAvgF,TemperatureLowF,DewpointHighF,DewpointAvgF,DewpointLowF,HumidityHigh,HumidityAvg,HumidityLow,PressureMaxIn,PressureMinIn,WindSpeedMaxMPH,WindSpeedAvgMPH,GustSpeedMaxMPH,PrecipitationSumIn
2013-1-24,35.6,35.6,35.6,15.3,15.3,15.3,43,43,43,30.45,30.45,28,20,28,0.00
2013-1-25,35.6,35.6,35.6,24.6,23.1,22.7,64,60,59,30.17,30.16,7,6,7,0.00
2013-1-26,71.6,42.9,33.8,40.9,31.8,-2.7,100,67,19,30.35,30.13,10,4,10,0.00
2013-1-27,46.4,38.2,30.2,37.4,33.9,28.2,100,85,70,30.55,30.35,21,8,21,0.00
2013-1-28,59.0,44.9,35.6,53.5,41.4,33.6,100,88,66,30.51,30.31,8,3,8,0.00
2013-1-29,77.0,59.2,44.6,64.1,54.8,44.6,100,87,57,30.31,30.16,21,6,21,0.00
2013-1-30,73.4,67.6,62.6,69.8,64.6,62.5,100,91,73,30.17,29.64,47,23,47,0.00
2013-1-31,69.8,51.7,33.8,68.0,40.5,25.9,100,69,34,30.17,29.64,47,25,47,0.00
2013-2-1,57.2,43.6,32.0,31.9,26.2,15.4,80,52,27,30.38,30.15,33,14,33,0.00
2013-2-2,51.8,39.5,26.6,42.8,30.3,15.4,100,71,50,30.40,30.11,18,6,18,0.00
2013-2-3,59.0,46.1,35.6,42.8,34.1,31.5,100,66,38,30.11,29.91,33,13,33,0.00
2013-2-4,51.8,40.1,28.4,37.4,33.2,28.4,100,79,49,30.17,30.03,8,2,8,0.00
2013-2-5,68.0,50.4,33.8,50.0,41.7,33.8,100,78,32,30.09,29.96,24,8,24,0.00
2013-2-6,69.8,52.3,41.0,51.6,45.1,40.5,100,81,35,30.22,30.03,13,4,13,0.00
2013-2-7,55.4,51.2,39.2,55.4,50.7,39.2,100,98,87,30.21,29.75,30,13,30,0.00
2013-2-8,62.6,54.4,46.4,53.6,49.5,46.2,100,85,55,30.05,29.69,25,12,25,0.00
2013-2-9,59.0,45.8,32.0,49.8,33.3,25.9,100,67,28,30.37,30.05,24,7,24,0.00
2013-2-10,59.0,45.6,30.2,51.8,41.3,30.2,100,87,54,30.44,30.24,21,5,21,0.00
2013-2-11,64.4,59.9,50.0,64.4,59.9,50.0,100,100,100,30.27,30.06,28,10,28,0.00
2013-2-12,60.8,56.2,48.2,59.0,53.6,44.5,100,92,55,30.14,29.94,10,4,10,0.00
2013-2-13,68.0,55.8,46.4,64.3,53.4,46.4,100,92,72,29.94,29.70,30,9,30,0.00
2013-2-14,51.8,47.0,39.2,51.8,41.3,35.2,100,82,53,30.10,29.85,20,5,20,0.00
2013-2-15,57.2,44.1,32.0,42.8,38.1,32.0,100,83,44,30.12,29.99,12,3,12,0.00
2013-2-16,50.0,39.6,32.0,44.6,38.2,32.0,100,96,61,30.01,29.83,37,10,37,0.00
2013-2-17,44.6,34.2,26.6,32.0,23.8,13.5,100,71,30,30.32,30.02,36,13,36,0.00
2013-2-18,51.8,37.7,23.0,33.6,27.2,20.9,100,70,34,30.45,30.31,18,4,18,0.00
2013-2-19,64.4,48.2,32.0,55.4,45.7,32.0,100,93,51,30.30,29.98,29,9,29,0.00
2013-2-20,55.4,46.2,35.6,48.2,35.2,26.0,100,70,37,30.17,30.04,10,5,10,0.00
2013-2-21,53.6,42.8,32.0,42.8,35.3,31.5,100,78,43,30.22,30.12,12,4,12,0.00
2013-2-22,51.8,48.4,41.0,51.8,46.5,38.9,100,93,75,30.24,30.08,29,11,29,0.00
2013-2-23,53.6,46.2,42.8,53.6,46.2,42.8,100,100,100,30.08,29.82,12,4,12,0.00
2013-2-24,66.2,52.1,41.0,51.8,47.4,41.0,100,87,42,30.02,29.80,23,6,23,0.00
2013-2-25,46.4,43.6,41.0,44.6,40.9,37.2,100,90,75,30.14,29.98,26,12,26,0.00
2013-2-26,69.8,59.6,44.6,68.0,58.2,44.6,100,95,82,30.03,29.61,41,19,41,0.00
2013-2-27,60.8,51.8,46.4,55.4,43.4,37.0,100,75,47,29.89,29.70,28,12,28,0.00
2013-2-28,59.0,49.1,37.4,42.7,37.3,33.3,93,67,38,29.90,29.78,33,16,33,0.00
2013-3-1,53.6,44.1,35.6,37.4,33.8,31.5,100,69,43,29.96,29.86,21,6,21,0.00
2013-3-2,50.0,40.8,32.0,37.4,33.9,31.5,100,79,49,29.94,29.84,24,8,24,0.00
2013-3-3,50.0,38.7,32.0,37.4,29.5,26.1,100,73,42,30.01,29.90,26,10,26,0.00
2013-3-4,53.6,39.7,30.2,33.8,25.9,20.4,93,63,27,30.17,30.01,25,9,25,0.00
2013-3-5,64.4,51.7,33.8,57.0,42.0,33.8,100,73,36,30.14,29.70,36,14,36,0.00
2013-3-6,59.0,48.1,41.0,59.0,32.5,26.0,100,56,39,30.07,29.66,41,28,41,0.00
2013-3-7,59.0,44.2,30.2,35.6,31.8,29.9,100,65,35,30.23,30.07,23,8,23,0.00
2013-3-8,59.0,45.0,33.8,33.7,30.5,27.6,93,60,30,30.29,30.17,29,10,29,0.00
2013-3-9,60.8,46.6,33.8,42.6,34.7,29.9,100,66,38,30.33,30.24,21,6,21,0.00
2013-3-10,62.6,47.4,32.0,44.5,37.6,29.9,100,75,31,30.32,30.24,18,4,18,0.00
2013-3-11,69.8,57.2,39.2,60.5,51.7,39.2,100,84,52,30.25,29.95,32,6,32,0.00
2013-3-12,69.8,63.6,51.8,64.4,59.9,46.2,100,88,72,29.95,29.81,33,13,33,0.00
2013-3-13,64.4,52.6,41.0,46.3,36.1,29.5,87,58,29,30.13,29.93,33,11,33,0.00
2013-3-14,53.6,43.0,32.0,33.7,25.9,20.7,93,53,30,30.31,30.10,29,10,29,0.00
2013-3-15,62.6,46.6,28.4,44.5,34.4,28.4,100,67,38,30.24,30.05,21,6,21,0.00
2013-3-16,78.8,63.5,53.6,51.7,46.6,42.4,76,56,29,30.05,29.85,36,19,36,0.00
2013-3-17,78.8,63.4,51.8,55.4,49.8,44.2,87,63,39,30.06,29.94,25,12,25,0.00
2013-3-18,60.8,55.6,51.8,60.8,53.4,48.1,100,93,63,30.12,29.88,10,6,10,0.00
2013-3-19,71.6,58.9,46.4,62.6,50.7,40.2,100,79,32,30.01,29.81,26,11,26,0.00
2013-3-20,59.0,49.4,35.6,44.5,32.0,22.8,100,55,28,30.12,29.85,21,6,21,0.00
2013-3-21,55.4,44.5,33.8,35.6,28.8,22.5,100,59,30,29.95,29.78,32,13,32,0.00
2013-3-22,50.0,41.7,33.8,39.1,26.7,19.0,81,56,34,30.12,29.96,21,6,21,0.00
2013-3-23,50.0,43.2,35.6,48.2,40.9,35.4,100,93,57,30.07,29.93,18,2,18,0.00
2013-3-24,62.6,51.7,42.8,62.6,51.3,42.8,100,99,87,29.93,29.46,54,16,54,0.00
2013-3-25,53.6,47.0,42.8,44.6,34.6,26.1,100,66,40,29.94,29.59,52,24,52,0.00
2013-3-26,51.8,42.2,33.8,32.0,28.2,26.0,80,59,39,30.17,29.94,30,13,30,0.00
2013-3-27,57.2,42.7,32.0,33.7,30.9,27.8,100,68,35,30.27,30.17,26,8,26,0.00
2013-3-28,59.0,44.8,32.0,33.8,29.4,26.0,93,59,30,30.31,30.19,29,9,29,0.00
2013-3-29,59.0,46.0,30.2,40.9,34.1,29.9,100,68,38,30.37,30.24,21,5,21,0.00
2013-3-30,68.0,54.5,44.6,51.7,46.4,40.9,100,77,42,30.27,30.10,18,4,18,0.00
2013-3-31,73.4,62.2,48.2,59.0,54.7,46.3,100,78,56,30.13,29.91,29,14,29,0.00
2013-4-1,73.4,63.1,51.8,62.6,57.9,51.8,100,86,53,29.95,29.86,26,8,26,0.00
2013-4-2,60.8,54.4,46.4,51.8,43.6,36.9,100,70,41,30.17,29.94,23,7,23,0.00
2013-4-3,62.6,52.7,42.8,53.6,44.3,36.9,100,77,39,30.26,30.09,20,7,20,0.00
2013-4-4,59.0,53.6,50.0,59.0,49.9,38.7,100,88,57,30.27,29.84,37,18,37,0.00
2013-4-5,57.2,48.1,42.8,51.8,46.1,42.8,100,94,71,30.05,29.83,24,8,24,0.00
2013-4-6,66.2,52.2,37.4,51.8,44.8,37.4,100,79,42,30.27,30.04,24,7,24,0.00
2013-4-7,69.8,59.0,50.0,59.0,54.0,49.7,100,85,52,30.28,30.17,14,6,14,0.00
2013-4-8,78.8,63.3,48.2,62.3,55.7,48.2,100,80,41,30.22,30.14,23,5,23,0.00
2013-4-9,80.6,68.4,55.4,68.0,60.6,55.0,100,80,44,30.25,30.15,18,6,18,0.00
2013-4-10,80.6,68.1,55.4,65.9,61.3,55.4,100,82,50,30.19,30.06,24,8,24,0.00
2013-4-11,80.6,68.7,55.4,71.6,65.2,55.4,100,90,65,30.06,29.89,30,11,30,0.00
2013-4-12,78.8,70.6,66.2,71.6,69.5,66.1,100,97,78,29.89,29.75,36,18,36,0.00
2013-4-13,73.4,63.1,53.6,68.0,53.6,45.9,100,75,40,30.05,29.81,20,6,20,0.00
2013-4-14,71.6,60.4,48.2,64.4,57.6,48.2,100,91,68,30.11,29.99,21,4,21,0.00
2013-4-15,73.4,66.0,60.8,64.4,62.6,60.5,100,90,68,30.18,29.92,46,10,46,0.00
2013-4-16,77.0,66.5,55.4,64.4,61.3,55.4,100,85,60,30.27,30.18,20,4,20,0.00
2013-4-17,78.8,66.9,55.4,68.0,61.7,55.4,100,86,57,30.26,30.16,18,4,18,0.00
2013-4-18,78.8,68.3,59.0,69.8,64.5,59.0,100,89,61,30.19,30.07,23,7,23,0.00
2013-4-19,78.8,72.2,66.2,71.6,69.5,66.2,100,92,73,30.06,29.89,40,17,40,0.00
2013-4-20,68.0,55.6,44.6,68.0,50.1,42.4,100,84,54,30.26,29.93,25,10,25,0.00
2013-4-21,64.4,54.0,41.0,51.8,46.2,41.0,100,77,55,30.38,30.26,41,22,41,0.00
2013-4-22,68.0,56.0,46.4,51.7,45.1,35.4,87,68,52,30.35,30.16,36,18,36,0.00
2013-4-23,68.0,56.2,50.0,55.4,51.5,48.0,100,85,59,30.23,30.16,24,9,24,0.00
2013-4-24,77.0,57.5,44.6,62.6,53.1,44.6,100,88,47,30.21,30.09,24,4,24,0.00
2013-4-25,77.0,65.8,60.8,64.4,62.7,60.8,100,91,61,30.26,30.10,13,6,13,0.00
2013-4-26,69.8,61.0,51.8,60.8,52.5,40.7,100,78,35,30.41,30.25,25,9,25,0.00
2013-4-27,71.6,61.9,51.8,60.8,54.0,47.9,100,78,43,30.36,30.27,12,4,12,0.00
2013-4-28,71.6,65.1,55.4,64.4,61.4,55.4,100,89,73,30.27,30.10,24,10,24,0.00